Time;durP1;ratioP1;P1;durP2;ratioP2;P2;SDS_P1;SDS_P2;PMS_P1;PMS_P2;Temp;Humidity;BMP_temperature;BMP_pressure;BME280_temperature;BME280_humidity;BME280_pressure;Samples;Min_cycle;Max_cycle;Signal;HPM_P1;HPM_P2
2021/03/11 00:00:46;;;;;;;30.63;16.02;;;7.20;99.90;;;;;;5094124;28;20393;-69
2021/03/11 00:03:14;;;;;;;26.23;14.93;;;7.20;99.90;;;;;;5093954;28;20224;-69
2021/03/11 00:05:40;;;;;;;23.20;15.65;;;7.20;99.90;;;;;;5094050;28;20276;-69
2021/03/11 00:08:06;;;;;;;22.90;14.27;;;7.30;99.90;;;;;;5093955;28;20227;-69
2021/03/11 00:10:33;;;;;;;23.75;14.38;;;7.30;99.90;;;;;;5093986;28;20178;-69
2021/03/11 00:12:59;;;;;;;18.95;13.07;;;7.30;99.90;;;;;;5094185;28;20192;-68
2021/03/11 00:15:26;;;;;;;23.17;13.50;;;7.30;99.90;;;;;;5093905;28;20183;-69
2021/03/11 00:17:52;;;;;;;22.35;14.02;;;7.40;99.90;;;;;;5093815;28;20372;-69
2021/03/11 00:20:21;;;;;;;21.88;14.48;;;7.30;99.90;;;;;;5093833;28;20179;-69
2021/03/11 00:22:48;;;;;;;23.20;15.18;;;7.30;99.90;;;;;;5093639;28;20191;-69
2021/03/11 00:25:16;;;;;;;28.00;15.27;;;7.40;99.90;;;;;;5093965;28;20229;-70
2021/03/11 00:27:41;;;;;;;22.25;14.55;;;7.30;99.90;;;;;;5093711;28;20254;-68
2021/03/11 00:30:10;;;;;;;29.30;13.97;;;7.40;99.90;;;;;;5093640;28;20202;-68
2021/03/11 00:32:36;;;;;;;20.27;13.45;;;7.40;99.90;;;;;;5093002;28;20690;-67
2021/03/11 00:35:03;;;;;;;22.55;14.05;;;7.40;99.90;;;;;;5093567;28;20651;-68
2021/03/11 00:37:28;;;;;;;21.63;15.60;;;7.40;99.90;;;;;;5093556;28;20513;-68
2021/03/11 00:39:54;;;;;;;20.50;13.30;;;7.40;99.90;;;;;;5093521;28;20178;-68
2021/03/11 00:42:19;;;;;;;23.50;12.93;;;7.40;99.90;;;;;;5093296;28;20196;-67
2021/03/11 00:44:45;;;;;;;21.67;13.57;;;7.50;99.90;;;;;;5093637;28;20175;-68
2021/03/11 00:47:10;;;;;;;26.00;13.83;;;7.50;99.90;;;;;;5093330;28;20170;-67
2021/03/11 00:49:36;;;;;;;15.77;12.07;;;7.50;99.90;;;;;;5093457;28;20163;-68
2021/03/11 00:52:03;;;;;;;24.23;13.50;;;7.50;93.20;;;;;;5093261;28;20735;-68
2021/03/11 00:54:29;;;;;;;22.05;13.05;;;7.50;99.90;;;;;;5093337;28;20163;-68
2021/03/11 00:56:54;;;;;;;26.43;14.30;;;7.50;86.80;;;;;;5093179;28;20168;-68
2021/03/11 00:59:20;;;;;;;21.00;13.97;;;7.50;86.50;;;;;;5093826;28;20208;-68
2021/03/11 01:01:46;;;;;;;19.80;14.23;;;7.50;80.60;;;;;;5093721;28;20187;-67
2021/03/11 01:04:12;;;;;;;22.17;11.70;;;7.60;46.40;;;;;;5094493;28;20448;-68
2021/03/11 01:06:38;;;;;;;19.50;11.95;;;7.60;21.90;;;;;;5092886;28;20186;-67
2021/03/11 01:09:04;;;;;;;16.63;10.97;;;7.60;1.00;;;;;;5093077;28;20164;-68
2021/03/11 01:11:30;;;;;;;16.50;11.53;;;7.60;1.00;;;;;;5093086;28;20429;-70
2021/03/11 01:13:55;;;;;;;20.83;12.30;;;7.60;1.00;;;;;;5093048;28;20401;-67
2021/03/11 01:16:21;;;;;;;18.10;11.57;;;7.60;1.00;;;;;;5093052;28;20168;-67
2021/03/11 01:18:46;;;;;;;19.83;12.17;;;7.60;16.90;;;;;;5093268;28;20201;-69
2021/03/11 01:21:12;;;;;;;17.23;11.87;;;7.60;7.50;;;;;;5093458;28;20167;-69
2021/03/11 01:23:37;;;;;;;16.53;11.57;;;7.70;1.00;;;;;;5092915;28;20568;-67
2021/03/11 01:26:03;;;;;;;15.53;10.50;;;7.70;1.00;;;;;;5092947;28;20163;-67
2021/03/11 01:28:29;;;;;;;17.63;10.53;;;7.70;1.00;;;;;;5092858;28;20171;-67
2021/03/11 01:30:54;;;;;;;15.93;10.67;;;7.70;1.00;;;;;;5092829;28;20167;-68
2021/03/11 01:33:20;;;;;;;19.20;12.30;;;7.70;1.00;;;;;;5092759;28;20195;-68
2021/03/11 01:35:45;;;;;;;22.47;11.67;;;7.80;1.00;;;;;;5092767;28;20216;-68
2021/03/11 01:38:11;;;;;;;20.50;11.97;;;7.80;1.00;;;;;;5092721;28;20230;-68
2021/03/11 01:40:36;;;;;;;15.60;10.87;;;7.90;1.00;;;;;;5092780;28;20172;-67
2021/03/11 01:43:02;;;;;;;15.87;10.83;;;7.80;1.00;;;;;;5092656;28;20282;-68
2021/03/11 01:45:28;;;;;;;14.75;10.52;;;7.80;1.00;;;;;;5096768;28;20163;-68
2021/03/11 01:47:54;;;;;;;17.57;10.90;;;7.90;1.00;;;;;;5096737;28;20170;-68
2021/03/11 01:50:20;;;;;;;15.00;9.97;;;8.00;1.00;;;;;;5096716;28;20929;-68
2021/03/11 01:52:45;;;;;;;13.90;9.50;;;8.00;1.00;;;;;;5096588;28;20229;-68
2021/03/11 01:55:12;;;;;;;17.93;9.70;;;8.00;1.00;;;;;;5096904;28;20173;-68
2021/03/11 01:57:37;;;;;;;16.08;9.43;;;7.90;1.00;;;;;;5096551;28;20167;-68
2021/03/11 02:00:23;;;;;;;20.07;9.77;;;8.00;1.00;;;;;;5096451;28;20170;-68
2021/03/11 02:02:50;;;;;;;20.27;10.10;;;8.00;1.00;;;;;;5095893;28;20294;-68
2021/03/11 02:05:17;;;;;;;13.55;9.85;;;8.00;1.00;;;;;;5096434;28;20692;-68
2021/03/11 02:07:43;;;;;;;21.85;11.30;;;8.10;1.00;;;;;;5096255;28;20282;-68
2021/03/11 02:10:11;;;;;;;13.20;9.30;;;8.10;1.00;;;;;;5096367;28;20212;-68
2021/03/11 02:13:09;;;;;;;12.43;8.23;;;8.10;1.00;;;;;;5096235;28;20660;-68
2021/03/11 02:15:42;;;;;;;11.80;8.23;;;8.10;1.00;;;;;;5096246;28;20235;-67
2021/03/11 02:18:17;;;;;;;18.27;9.35;;;8.10;1.00;;;;;;5096487;28;20152;-68
2021/03/11 02:21:11;;;;;;;15.32;9.40;;;8.10;1.00;;;;;;5096216;28;20651;-68
2021/03/11 02:24:05;;;;;;;11.20;7.18;;;8.20;1.00;;;;;;5088080;28;20341;-67
2021/03/11 02:27:05;;;;;;;11.57;6.90;;;8.20;1.00;;;;;;5096323;28;20490;-68
2021/03/11 02:29:33;;;;;;;10.20;6.18;;;8.10;1.00;;;;;;5095979;28;20159;-68
2021/03/11 02:32:01;;;;;;;12.15;6.55;;;8.20;1.00;;;;;;5096104;28;20656;-67
2021/03/11 02:34:37;;;;;;;10.13;6.25;;;8.10;1.00;;;;;;5095806;28;20163;-68
2021/03/11 02:37:33;;;;;;;8.82;5.22;;;8.10;1.00;;;;;;5096157;28;20179;-67
2021/03/11 02:40:10;;;;;;;9.13;4.95;;;8.20;1.00;;;;;;5095011;28;20183;-68
2021/03/11 02:42:38;;;;;;;9.45;7.05;;;8.20;1.00;;;;;;5095628;28;20195;-67
2021/03/11 02:45:06;;;;;;;6.60;5.25;;;8.30;1.00;;;;;;5095667;28;20164;-68
2021/03/11 02:47:32;;;;;;;5.30;4.05;;;8.30;1.00;;;;;;5095869;28;20520;-68
2021/03/11 02:50:00;;;;;;;7.80;3.95;;;8.30;1.00;;;;;;5095798;28;20257;-68
2021/03/11 02:52:27;;;;;;;5.28;3.70;;;8.30;1.00;;;;;;5095418;28;20556;-68
2021/03/11 02:54:54;;;;;;;6.40;3.78;;;8.30;1.00;;;;;;5094909;28;20688;-68
2021/03/11 02:57:21;;;;;;;6.97;3.72;;;8.30;1.00;;;;;;5095434;28;20228;-68
2021/03/11 02:59:49;;;;;;;6.53;4.38;;;8.30;1.00;;;;;;5095317;28;20536;-67
2021/03/11 03:02:15;;;;;;;5.53;3.53;;;8.30;1.00;;;;;;5095190;28;20266;-68
2021/03/11 03:04:43;;;;;;;4.68;3.42;;;8.30;1.00;;;;;;5095190;28;20190;-68
2021/03/11 03:07:10;;;;;;;8.93;3.63;;;8.30;1.00;;;;;;5095318;28;20270;-69
2021/03/11 03:09:36;;;;;;;5.13;3.83;;;8.30;1.00;;;;;;5095012;28;20163;-67
2021/03/11 03:12:02;;;;;;;6.07;3.53;;;8.40;1.00;;;;;;5095023;28;20196;-67
2021/03/11 03:14:27;;;;;;;4.88;3.70;;;8.40;1.00;;;;;;5095018;28;20406;-68
2021/03/11 03:16:54;;;;;;;5.13;3.53;;;8.40;1.00;;;;;;5095204;28;20242;-68
2021/03/11 03:19:19;;;;;;;6.20;4.43;;;8.40;1.00;;;;;;5095071;28;20168;-68
2021/03/11 03:21:47;;;;;;;3.93;3.43;;;8.40;1.00;;;;;;5094882;28;20190;-68
2021/03/11 03:24:16;;;;;;;4.78;3.88;;;8.50;1.00;;;;;;5094567;28;20191;-68
2021/03/11 03:26:41;;;;;;;4.43;3.25;;;8.50;1.00;;;;;;5094720;28;20648;-68
2021/03/11 03:29:07;;;;;;;6.13;3.67;;;8.50;1.00;;;;;;5094978;28;20202;-68
2021/03/11 03:31:33;;;;;;;10.43;6.73;;;8.50;1.00;;;;;;5094624;28;20191;-68
2021/03/11 03:33:59;;;;;;;5.17;3.67;;;8.50;1.00;;;;;;5094648;28;20376;-68
2021/03/11 03:36:24;;;;;;;15.30;9.00;;;8.50;1.00;;;;;;5094629;28;20358;-68
2021/03/11 03:38:50;;;;;;;5.77;3.23;;;8.50;1.00;;;;;;5094497;28;20254;-68
2021/03/11 03:41:16;;;;;;;5.00;3.07;;;8.50;1.00;;;;;;5094489;28;20513;-68
2021/03/11 03:43:44;;;;;;;5.45;4.00;;;8.50;1.00;;;;;;5094384;28;20196;-68
2021/03/11 03:46:11;;;;;;;7.00;4.32;;;8.50;1.00;;;;;;5094370;28;20164;-68
2021/03/11 03:48:45;;;;;;;5.68;3.80;;;8.30;1.00;;;;;;5094617;28;20159;-67
2021/03/11 03:51:11;;;;;;;7.30;4.70;;;8.20;99.90;;;;;;5094527;28;20148;-68
2021/03/11 03:53:45;;;;;;;6.90;4.20;;;8.10;99.90;;;;;;5095075;28;20222;-68
2021/03/11 03:56:41;;;;;;;6.70;3.55;;;7.90;99.90;;;;;;5095209;28;20167;-68
2021/03/11 03:59:13;;;;;;;6.40;4.30;;;7.90;1.00;;;;;;5083184;28;20245;-68
2021/03/11 04:01:40;;;;;;;5.75;4.10;;;7.80;9.80;;;;;;5094291;28;20196;-68
2021/03/11 04:04:08;;;;;;;6.28;4.15;;;7.80;99.90;;;;;;5094302;28;20195;-68
2021/03/11 04:06:35;;;;;;;6.45;4.47;;;7.70;1.00;;;;;;5093313;28;20643;-68
2021/03/11 04:09:05;;;;;;;6.15;3.80;;;7.70;1.00;;;;;;5094494;28;20631;-68
2021/03/11 04:11:31;;;;;;;6.63;4.85;;;7.70;55.80;;;;;;5093762;28;20186;-68
2021/03/11 04:13:59;;;;;;;7.60;3.97;;;7.70;1.00;;;;;;5093921;28;20175;-68
2021/03/11 04:16:28;;;;;;;8.07;4.47;;;7.70;90.80;;;;;;5093889;28;20217;-68
2021/03/11 04:18:55;;;;;;;5.65;4.32;;;7.70;99.90;;;;;;5093704;28;20182;-68
2021/03/11 04:21:21;;;;;;;8.68;5.05;;;7.60;99.90;;;;;;5093599;28;20274;-68
2021/03/11 04:23:48;;;;;;;6.35;3.40;;;7.70;99.90;;;;;;5093564;28;20206;-67
2021/03/11 04:26:13;;;;;;;4.70;3.45;;;7.80;1.00;;;;;;5093671;28;20194;-68
2021/03/11 04:28:40;;;;;;;4.90;2.73;;;7.80;1.00;;;;;;5093605;28;20648;-67
2021/03/11 04:31:06;;;;;;;6.90;4.05;;;7.70;1.00;;;;;;5093467;28;20191;-67
2021/03/11 04:33:32;;;;;;;7.67;3.40;;;7.90;1.00;;;;;;5093583;28;20206;-67
2021/03/11 04:35:59;;;;;;;5.35;3.10;;;7.90;99.90;;;;;;5093697;28;20919;-68
2021/03/11 04:38:25;;;;;;;4.72;3.20;;;7.90;99.90;;;;;;5093388;28;20648;-68
2021/03/11 04:40:52;;;;;;;3.97;2.67;;;8.00;99.90;;;;;;5093431;28;20171;-68
2021/03/11 04:43:18;;;;;;;6.15;3.35;;;8.10;99.90;;;;;;5093250;28;20274;-68
2021/03/11 04:45:45;;;;;;;3.70;2.78;;;8.10;99.90;;;;;;5093384;28;20691;-68
2021/03/11 04:48:11;;;;;;;7.60;3.67;;;8.20;99.90;;;;;;5093602;28;20212;-68
2021/03/11 04:50:41;;;;;;;7.30;4.07;;;8.20;99.90;;;;;;5093383;28;20621;-68
2021/03/11 04:53:08;;;;;;;3.30;2.33;;;8.20;99.90;;;;;;5093155;28;20683;-69
2021/03/11 04:55:34;;;;;;;3.70;2.88;;;8.30;91.30;;;;;;5093247;28;20229;-68
2021/03/11 04:58:02;;;;;;;5.05;2.90;;;8.30;62.60;;;;;;5093532;28;20533;-68
2021/03/11 05:00:28;;;;;;;3.88;2.60;;;8.30;54.00;;;;;;5093056;28;20167;-69
2021/03/11 05:02:56;;;;;;;2.90;2.55;;;8.30;38.70;;;;;;5092925;28;20854;-68
2021/03/11 05:05:40;;;;;;;4.38;2.45;;;8.30;50.10;;;;;;5093072;28;20160;-68
2021/03/11 05:08:07;;;;;;;3.50;2.42;;;8.30;27.20;;;;;;5093628;28;20171;-68
2021/03/11 05:10:33;;;;;;;3.30;2.40;;;8.30;46.90;;;;;;5094278;28;20170;-69
2021/03/11 05:13:00;;;;;;;2.55;2.03;;;8.30;22.20;;;;;;5093474;28;20183;-69
2021/03/11 05:15:25;;;;;;;5.07;2.03;;;8.40;11.50;;;;;;5093305;28;20172;-69
2021/03/11 05:17:52;;;;;;;2.80;2.07;;;8.50;1.10;;;;;;5094484;28;20171;-69
2021/03/11 05:20:18;;;;;;;3.67;2.40;;;8.50;1.00;;;;;;5097437;28;20187;-69
2021/03/11 05:22:43;;;;;;;3.60;2.30;;;8.50;1.00;;;;;;5097095;28;20746;-69
2021/03/11 05:25:10;;;;;;;2.90;2.03;;;8.50;1.00;;;;;;5097324;28;20391;-69
2021/03/11 05:27:37;;;;;;;2.10;1.90;;;8.60;1.00;;;;;;5097171;28;20616;-68
2021/03/11 05:30:05;;;;;;;3.38;1.83;;;8.50;1.00;;;;;;5097390;28;20163;-69
2021/03/11 05:32:30;;;;;;;2.20;1.90;;;8.60;1.00;;;;;;5096863;28;20191;-68
2021/03/11 05:34:56;;;;;;;4.37;2.37;;;8.50;1.00;;;;;;5096810;28;20175;-69
2021/03/11 05:37:22;;;;;;;3.87;2.97;;;8.60;1.00;;;;;;5096905;28;20172;-69
2021/03/11 05:39:48;;;;;;;3.13;1.97;;;8.60;1.00;;;;;;5096892;28;20198;-69
2021/03/11 05:42:17;;;;;;;2.83;1.83;;;8.60;1.00;;;;;;5096617;28;20194;-68
2021/03/11 05:44:43;;;;;;;2.30;1.75;;;8.60;1.00;;;;;;5097070;28;20167;-69
2021/03/11 05:47:12;;;;;;;2.78;2.00;;;8.60;1.00;;;;;;5096814;28;20182;-69
2021/03/11 05:49:39;;;;;;;2.90;1.73;;;8.60;1.00;;;;;;5096554;28;20175;-68
2021/03/11 05:52:12;;;;;;;2.97;2.30;;;8.60;1.00;;;;;;5096495;28;20196;-69
2021/03/11 05:54:38;;;;;;;5.43;1.40;;;8.60;1.00;;;;;;5096791;28;20155;-69
2021/03/11 05:57:05;;;;;;;2.42;1.52;;;8.60;1.00;;;;;;5096477;28;20164;-66
2021/03/11 05:59:32;;;;;;;2.95;2.05;;;8.60;2.40;;;;;;5096333;28;20582;-68
2021/03/11 06:02:05;;;;;;;1.98;1.58;;;8.60;40.60;;;;;;5096319;28;20552;-68
2021/03/11 06:04:35;;;;;;;2.80;1.67;;;8.60;76.50;;;;;;5096322;28;20179;-68
2021/03/11 06:07:07;;;;;;;2.03;1.52;;;8.60;55.10;;;;;;5096417;28;20214;-68
2021/03/11 06:09:34;;;;;;;2.30;1.85;;;8.50;99.90;;;;;;5096353;28;20217;-68
2021/03/11 06:12:01;;;;;;;3.50;2.17;;;8.50;99.90;;;;;;5096390;28;20183;-68
2021/03/11 06:14:34;;;;;;;2.22;2.03;;;8.50;99.90;;;;;;5096236;28;20671;-68
2021/03/11 06:17:05;;;;;;;6.47;2.08;;;8.50;99.90;;;;;;5096110;28;20528;-68
2021/03/11 06:19:31;;;;;;;4.43;2.75;;;8.50;99.90;;;;;;5096453;28;20235;-68
2021/03/11 06:21:56;;;;;;;3.53;2.77;;;8.60;99.90;;;;;;5096111;28;20648;-68
2021/03/11 06:24:22;;;;;;;3.37;2.10;;;8.50;99.90;;;;;;5095758;28;20312;-67
2021/03/11 06:26:48;;;;;;;5.10;2.10;;;8.60;99.90;;;;;;5095876;28;20658;-67
2021/03/11 06:29:16;;;;;;;2.28;2.00;;;8.60;99.90;;;;;;5094769;28;20171;-68
2021/03/11 06:31:42;;;;;;;2.53;1.88;;;8.70;99.90;;;;;;5095969;28;20191;-67
2021/03/11 06:34:22;;;;;;;3.33;1.40;;;8.70;99.90;;;;;;5095893;28;20187;-67
2021/03/11 06:36:49;;;;;;;4.35;1.95;;;8.80;99.90;;;;;;5095921;28;20246;-68
2021/03/11 06:39:26;;;;;;;4.68;2.80;;;8.70;99.90;;;;;;5095559;28;20198;-68
2021/03/11 06:41:52;;;;;;;3.08;2.15;;;8.80;99.90;;;;;;5095494;28;20213;-68
2021/03/11 06:44:18;;;;;;;3.27;2.70;;;8.90;99.90;;;;;;5095343;28;20533;-67
2021/03/11 06:47:01;;;;;;;3.20;2.00;;;8.90;99.90;;;;;;5095493;28;20388;-67
2021/03/11 06:49:27;;;;;;;3.53;2.17;;;8.90;99.90;;;;;;5095453;28;20152;-67
2021/03/11 06:52:09;;;;;;;3.10;2.60;;;9.00;91.10;;;;;;5095263;28;20190;-67
2021/03/11 06:54:57;;;;;;;2.10;1.70;;;9.00;99.90;;;;;;5095284;28;20410;-68
2021/03/11 06:57:32;;;;;;;2.10;1.73;;;9.00;99.90;;;;;;5095546;28;20218;-68
2021/03/11 06:59:59;;;;;;;2.50;1.73;;;9.00;99.90;;;;;;5095269;28;20143;-69
2021/03/11 07:02:26;;;;;;;2.40;1.90;;;9.10;61.80;;;;;;5094924;28;20580;-68
2021/03/11 07:04:53;;;;;;;3.20;2.05;;;9.20;33.60;;;;;;5094784;28;20625;-68
2021/03/11 07:07:20;;;;;;;2.53;1.90;;;9.20;36.20;;;;;;5093397;28;20618;-69
2021/03/11 07:09:47;;;;;;;3.65;2.10;;;9.20;37.40;;;;;;5094950;28;20266;-69
2021/03/11 07:12:13;;;;;;;2.78;2.20;;;9.20;30.90;;;;;;5094925;28;20186;-69
2021/03/11 07:14:39;;;;;;;2.40;1.60;;;9.20;27.20;;;;;;5095316;28;20168;-69
2021/03/11 07:17:22;;;;;;;3.67;1.60;;;9.30;19.40;;;;;;5094861;28;20175;-68
2021/03/11 07:20:09;;;;;;;2.35;1.40;;;9.30;16.20;;;;;;5094746;28;20182;-69
2021/03/11 07:22:35;;;;;;;3.00;1.70;;;9.30;11.50;;;;;;5094471;28;20220;-69
2021/03/11 07:25:01;;;;;;;2.20;1.50;;;9.40;8.10;;;;;;5094435;28;20163;-69
2021/03/11 07:27:39;;;;;;;2.20;1.70;;;9.40;1.00;;;;;;5094447;28;20368;-69
2021/03/11 07:30:06;;;;;;;1.50;1.25;;;9.40;1.00;;;;;;5094823;28;20254;-72
2021/03/11 07:32:34;;;;;;;1.73;1.40;;;9.40;1.00;;;;;;5094416;28;20241;-69
2021/03/11 07:35:01;;;;;;;2.03;1.35;;;9.40;1.00;;;;;;5094712;28;20254;-69
2021/03/11 07:37:28;;;;;;;2.38;1.00;;;9.50;1.00;;;;;;5094328;28;20246;-69
2021/03/11 07:39:58;;;;;;;2.00;1.13;;;9.50;1.00;;;;;;5094351;28;20168;-69
2021/03/11 07:42:25;;;;;;;1.65;1.17;;;9.50;1.00;;;;;;5094731;28;20211;-68
2021/03/11 07:44:51;;;;;;;2.65;1.60;;;9.50;1.00;;;;;;5093982;28;20171;-68
2021/03/11 07:47:18;;;;;;;2.85;1.00;;;9.50;1.00;;;;;;5094229;28;20209;-68
2021/03/11 07:49:44;;;;;;;2.28;1.30;;;9.50;8.50;;;;;;5094133;28;20221;-68
2021/03/11 07:52:09;;;;;;;1.43;1.10;;;9.60;1.00;;;;;;5093947;28;20698;-68
2021/03/11 07:54:35;;;;;;;1.93;1.20;;;9.60;1.00;;;;;;5093842;28;20775;-68
2021/03/11 07:57:02;;;;;;;3.03;1.50;;;9.70;1.00;;;;;;5095083;28;20652;-68
2021/03/11 07:59:28;;;;;;;1.98;1.60;;;9.70;1.00;;;;;;5093882;28;20168;-68
2021/03/11 08:01:59;;;;;;;2.00;1.10;;;9.70;1.00;;;;;;5094021;28;20556;-68
2021/03/11 08:04:28;;;;;;;2.70;1.42;;;9.70;1.00;;;;;;5093797;28;20187;-68
2021/03/11 08:07:25;;;;;;;1.45;1.13;;;9.70;1.00;;;;;;5094060;28;20641;-68
2021/03/11 08:09:52;;;;;;;2.83;1.73;;;9.80;1.00;;;;;;5092519;28;20190;-68
2021/03/11 08:12:40;;;;;;;2.88;1.13;;;9.80;1.00;;;;;;5093968;28;20968;-68
2021/03/11 08:15:15;;;;;;;3.57;1.47;;;9.90;1.00;;;;;;5094255;28;20627;-68
2021/03/11 08:17:46;;;;;;;2.25;1.60;;;9.90;1.00;;;;;;5093463;28;20503;-68
2021/03/11 08:20:20;;;;;;;2.53;1.30;;;10.00;1.00;;;;;;5093702;28;20148;-68
2021/03/11 08:23:00;;;;;;;1.30;1.02;;;10.00;1.00;;;;;;5093373;28;20186;-69
2021/03/11 08:25:31;;;;;;;1.75;1.20;;;10.00;1.00;;;;;;5093801;28;20151;-69
2021/03/11 08:27:57;;;;;;;2.55;1.40;;;10.10;1.00;;;;;;5093356;28;20524;-69
2021/03/11 08:30:38;;;;;;;3.83;1.90;;;10.20;1.00;;;;;;5093626;28;20176;-69
2021/03/11 08:33:14;;;;;;;4.22;1.55;;;10.10;99.90;;;;;;5093464;28;20560;-69
2021/03/11 08:35:41;;;;;;;3.38;1.92;;;10.10;99.90;;;;;;5093930;28;20587;-69
2021/03/11 08:38:19;;;;;;;3.53;2.30;;;10.10;99.90;;;;;;5093743;28;20192;-69
2021/03/11 08:40:55;;;;;;;4.78;2.28;;;10.00;1.00;;;;;;5093407;28;20178;-69
2021/03/11 08:43:39;;;;;;;3.05;2.47;;;10.10;1.00;;;;;;5093527;28;20208;-69
2021/03/11 08:46:08;;;;;;;7.65;2.40;;;10.10;1.00;;;;;;5093062;28;20163;-68
2021/03/11 08:48:41;;;;;;;4.80;2.03;;;10.20;99.90;;;;;;5093007;28;20183;-68
2021/03/11 08:51:10;;;;;;;2.72;2.20;;;10.30;99.90;;;;;;5092877;28;20167;-68
2021/03/11 08:53:35;;;;;;;3.25;2.33;;;10.30;99.90;;;;;;5092612;28;20633;-68
2021/03/11 08:56:02;;;;;;;4.23;2.20;;;10.30;99.90;;;;;;5092776;28;20182;-68
2021/03/11 08:58:28;;;;;;;3.97;2.55;;;10.30;99.90;;;;;;5092830;28;20204;-70
2021/03/11 09:01:04;;;;;;;2.70;2.20;;;10.40;99.90;;;;;;5092880;28;20164;-68
2021/03/11 09:03:40;;;;;;;3.42;2.58;;;10.40;99.90;;;;;;5093189;28;20791;-68
2021/03/11 09:06:07;;;;;;;4.53;3.00;;;10.50;99.90;;;;;;5092967;28;20157;-68
2021/03/11 09:08:44;;;;;;;5.03;3.00;;;10.50;99.90;;;;;;5092853;28;20226;-69
2021/03/11 09:11:12;;;;;;;4.68;2.67;;;10.50;99.90;;;;;;5092578;28;20409;-68
2021/03/11 09:13:44;;;;;;;7.68;3.40;;;10.50;99.90;;;;;;5092945;28;20200;-68
2021/03/11 09:16:10;;;;;;;2.67;2.30;;;10.50;99.90;;;;;;5092649;28;20164;-68
2021/03/11 09:18:36;;;;;;;4.07;2.50;;;10.50;99.90;;;;;;5093129;28;20754;-68
2021/03/11 09:21:04;;;;;;;4.20;2.60;;;10.50;99.90;;;;;;5092742;28;20177;-69
2021/03/11 09:23:38;;;;;;;2.20;1.85;;;10.60;99.90;;;;;;5092460;28;20236;-68
2021/03/11 09:26:04;;;;;;;2.60;1.70;;;10.60;99.90;;;;;;5092698;28;20149;-68
2021/03/11 09:28:31;;;;;;;72.82;46.78;;;10.70;99.90;;;;;;5093015;28;20409;-68
2021/03/11 09:30:56;;;;;;;7.53;2.20;;;10.60;99.90;;;;;;5092902;28;20216;-68
2021/03/11 09:33:22;;;;;;;6.83;2.47;;;10.70;99.90;;;;;;5092693;28;20404;-68
2021/03/11 09:35:51;;;;;;;4.17;2.10;;;10.70;99.90;;;;;;5092446;28;20174;-68
2021/03/11 09:38:26;;;;;;;5.53;2.40;;;10.80;99.90;;;;;;5092950;28;20537;-67
2021/03/11 09:40:54;;;;;;;2.40;1.00;;;10.90;99.90;;;;;;5093027;28;20732;-68
2021/03/11 09:43:34;;;;;;;3.10;1.50;;;10.40;1.00;;;;;;5092728;28;20814;-68
2021/03/11 09:46:08;;;;;;;5.25;1.42;;;10.00;99.90;;;;;;5092788;28;20384;-68
2021/03/11 09:48:48;;;;;;;2.37;1.43;;;9.80;17.40;;;;;;5092559;28;20592;-68
2021/03/11 09:51:18;;;;;;;4.47;1.40;;;9.80;73.90;;;;;;5092723;28;20937;-68
2021/03/11 09:53:54;;;;;;;3.63;1.20;;;9.70;53.80;;;;;;5092651;28;20531;-67
2021/03/11 09:56:25;;;;;;;8.38;1.95;;;9.80;1.00;;;;;;5092742;28;20152;-68
2021/03/11 09:58:53;;;;;;;7.35;2.88;;;9.80;1.00;;;;;;5092447;28;20203;-68
2021/03/11 10:01:30;;;;;;;12.90;2.60;;;9.90;99.90;;;;;;5092274;28;20610;-68
2021/03/11 10:03:56;;;;;;;8.57;1.52;;;10.20;99.90;;;;;;5092277;28;20179;-68
2021/03/11 10:06:23;;;;;;;11.50;2.63;;;10.20;99.90;;;;;;5095615;28;20634;-68
2021/03/11 10:08:56;;;;;;;12.52;2.42;;;10.40;99.90;;;;;;5096082;28;20598;-68
2021/03/11 10:11:29;;;;;;;11.63;2.00;;;10.40;71.40;;;;;;5096880;28;20665;-67
2021/03/11 10:14:01;;;;;;;10.32;2.05;;;10.40;29.80;;;;;;5096339;28;20418;-68
2021/03/11 10:16:32;;;;;;;8.93;2.40;;;10.70;1.00;;;;;;5096250;28;20154;-68
2021/03/11 10:19:08;;;;;;;7.07;2.13;;;11.10;1.00;;;;;;5094772;28;20175;-69
2021/03/11 10:21:52;;;;;;;12.67;2.40;;;11.10;1.00;;;;;;5095878;28;20458;-68
2021/03/11 10:24:41;;;;;;;7.25;1.35;;;11.10;1.00;;;;;;5096022;28;20429;-68
2021/03/11 10:27:26;;;;;;;5.47;2.27;;;11.00;1.00;;;;;;5095979;28;20520;-67
2021/03/11 10:30:23;;;;;;;7.33;1.83;;;11.20;1.00;;;;;;5096058;28;20394;-68
2021/03/11 10:32:59;;;;;;;11.17;2.20;;;11.60;1.00;;;;;;5095853;28;20428;-68
2021/03/11 10:35:33;;;;;;;5.40;2.53;;;11.80;1.00;;;;;;5096013;28;20378;-68
2021/03/11 10:38:14;;;;;;;9.23;2.70;;;12.10;1.00;;;;;;5096577;28;20397;-69
2021/03/11 10:40:40;;;;;;;6.40;2.50;;;12.50;1.00;;;;;;5095546;28;20402;-68
2021/03/11 10:43:18;;;;;;;3.87;1.77;;;12.60;1.00;;;;;;5095870;28;20787;-68
2021/03/11 10:45:44;;;;;;;3.20;1.00;;;12.80;1.00;;;;;;5096182;28;20588;-68
2021/03/11 10:48:11;;;;;;;7.27;2.10;;;12.90;1.00;;;;;;5095913;28;20405;-68
2021/03/11 10:50:45;;;;;;;6.67;2.10;;;13.20;1.00;;;;;;5095832;28;20430;-69
2021/03/11 10:53:12;;;;;;;4.03;1.37;;;13.50;1.00;;;;;;5095853;28;20790;-69
2021/03/11 10:55:44;;;;;;;9.30;1.70;;;13.60;1.00;;;;;;5095866;28;20402;-68
2021/03/11 10:58:21;;;;;;;6.13;2.17;;;13.90;1.00;;;;;;5095753;28;20429;-69
2021/03/11 11:00:48;;;;;;;9.67;3.07;;;14.00;1.00;;;;;;5096339;28;20507;-69
2021/03/11 11:03:13;;;;;;;6.67;2.10;;;14.10;1.00;;;;;;5095612;28;20894;-69
2021/03/11 11:05:39;;;;;;;6.67;2.80;;;14.20;1.00;;;;;;5095611;28;20473;-69
2021/03/11 11:08:08;;;;;;;11.33;1.90;;;14.40;1.00;;;;;;5095365;28;20183;-67
2021/03/11 11:10:34;;;;;;;3.77;1.70;;;14.50;1.00;;;;;;5095478;28;20202;-68
2021/03/11 11:13:01;;;;;;;8.37;1.70;;;14.40;1.00;;;;;;5096155;28;20900;-68
2021/03/11 11:15:28;;;;;;;11.33;1.67;;;14.70;1.00;;;;;;5095111;28;20402;-68
2021/03/11 11:17:54;;;;;;;5.63;1.30;;;14.70;1.00;;;;;;5095172;28;20409;-68
2021/03/11 11:20:20;;;;;;;11.80;1.73;;;15.10;1.00;;;;;;5095033;28;20410;-68
2021/03/11 11:22:45;;;;;;;4.23;1.43;;;15.10;1.00;;;;;;5095428;28;20449;-68
2021/03/11 11:25:12;;;;;;;6.20;1.73;;;14.90;1.00;;;;;;5095649;28;20667;-68
2021/03/11 11:27:38;;;;;;;3.30;1.40;;;15.20;1.00;;;;;;5095417;28;20163;-68
2021/03/11 11:30:07;;;;;;;7.70;1.60;;;15.20;1.00;;;;;;5095239;28;20950;-67
2021/03/11 11:32:33;;;;;;;1.50;0.90;;;15.30;1.00;;;;;;5094919;28;20442;-68
2021/03/11 11:34:58;;;;;;;2.63;1.20;;;15.20;1.00;;;;;;5095052;28;20762;-69
2021/03/11 11:37:24;;;;;;;8.80;1.70;;;15.40;1.00;;;;;;5095104;28;20637;-68
2021/03/11 11:39:49;;;;;;;5.80;1.90;;;15.50;1.00;;;;;;5094505;28;20169;-69
2021/03/11 11:42:16;;;;;;;3.13;1.40;;;15.60;1.00;;;;;;5093348;28;20201;-69
2021/03/11 11:44:44;;;;;;;9.33;1.97;;;15.40;99.90;;;;;;5094109;28;20203;-68
2021/03/11 11:47:10;;;;;;;6.87;1.50;;;15.30;99.90;;;;;;5094268;28;20435;-68
2021/03/11 11:49:36;;;;;;;3.20;1.70;;;15.70;99.90;;;;;;5094028;28;20404;-68
2021/03/11 11:52:02;;;;;;;10.43;1.80;;;15.80;99.90;;;;;;5094085;28;20417;-68
2021/03/11 11:54:28;;;;;;;9.33;1.63;;;15.70;99.90;;;;;;5094095;28;20429;-68
2021/03/11 11:56:54;;;;;;;5.50;1.50;;;15.90;99.90;;;;;;5093805;28;20397;-69
2021/03/11 11:59:20;;;;;;;5.40;1.70;;;15.50;99.90;;;;;;5093929;28;20168;-69
2021/03/11 12:01:46;;;;;;;12.70;2.90;;;15.90;99.90;;;;;;5093617;28;20427;-69
2021/03/11 12:04:13;;;;;;;5.80;1.27;;;16.20;99.90;;;;;;5093645;28;20787;-69
2021/03/11 12:06:39;;;;;;;6.77;1.20;;;16.20;99.90;;;;;;5093290;28;21008;-68
2021/03/11 12:09:05;;;;;;;8.33;2.50;;;16.00;99.90;;;;;;5093945;28;20749;-68
2021/03/11 12:11:31;;;;;;;7.83;3.00;;;16.10;99.90;;;;;;5093651;28;20466;-68
2021/03/11 12:13:57;;;;;;;6.30;1.60;;;15.70;99.90;;;;;;5093506;28;20815;-69
2021/03/11 12:16:22;;;;;;;4.37;2.00;;;16.00;99.90;;;;;;5093806;28;20248;-69
2021/03/11 12:18:48;;;;;;;9.30;2.63;;;15.90;99.90;;;;;;5094197;28;20166;-69
2021/03/11 12:21:14;;;;;;;10.07;2.20;;;16.00;99.90;;;;;;5094041;28;20563;-69
2021/03/11 12:23:40;;;;;;;11.37;2.50;;;16.00;99.90;;;;;;5093614;28;20184;-69
2021/03/11 12:26:05;;;;;;;9.70;3.27;;;15.80;99.90;;;;;;5093967;28;20415;-69
2021/03/11 12:28:31;;;;;;;11.53;3.23;;;15.70;99.90;;;;;;5093612;28;20515;-68
2021/03/11 12:30:57;;;;;;;13.13;2.77;;;15.20;99.90;;;;;;5093928;28;20213;-68
2021/03/11 12:33:24;;;;;;;11.80;2.43;;;15.20;99.90;;;;;;5094084;28;20200;-67
2021/03/11 12:35:50;;;;;;;9.00;1.83;;;15.30;99.90;;;;;;5094471;28;20169;-68
2021/03/11 12:38:15;;;;;;;13.00;1.97;;;15.70;99.90;;;;;;5094056;28;20865;-68
2021/03/11 12:40:41;;;;;;;12.13;2.27;;;15.40;99.90;;;;;;5093898;28;20160;-67
2021/03/11 12:43:08;;;;;;;9.50;2.67;;;15.80;99.90;;;;;;5093951;28;20196;-68
2021/03/11 12:45:33;;;;;;;12.50;2.70;;;15.90;99.90;;;;;;5093552;28;20428;-68
2021/03/11 12:47:59;;;;;;;9.93;2.80;;;15.60;99.90;;;;;;5093529;28;20402;-68
2021/03/11 12:50:25;;;;;;;9.63;2.10;;;15.80;99.90;;;;;;5093925;28;20190;-69
2021/03/11 12:52:51;;;;;;;10.53;1.87;;;15.90;99.90;;;;;;5093448;28;20260;-67
2021/03/11 12:55:17;;;;;;;12.50;2.23;;;15.80;99.90;;;;;;5093756;28;20164;-68
2021/03/11 12:57:42;;;;;;;11.70;1.80;;;15.50;99.90;;;;;;5093878;28;20894;-68
2021/03/11 13:00:09;;;;;;;9.00;1.50;;;15.90;99.90;;;;;;5093674;28;20171;-68
2021/03/11 13:02:35;;;;;;;8.33;1.60;;;15.90;99.90;;;;;;5093826;28;20302;-67
2021/03/11 13:05:02;;;;;;;6.73;1.07;;;15.70;99.90;;;;;;5094027;28;20494;-68